createdAt,value
2023-04-22T00:00:34.152Z,10.00
2023-04-22T00:05:37.766Z,10.00
2023-04-22T00:10:42.150Z,8.00
2023-04-22T00:15:44.912Z,10.00
2023-04-22T00:20:47.686Z,10.00
2023-04-22T00:25:52.145Z,10.00
2023-04-22T00:30:54.927Z,8.80
2023-04-22T00:35:57.813Z,10.00
2023-04-22T00:41:02.224Z,8.60
2023-04-22T00:46:05.259Z,7.40
2023-04-22T00:51:08.793Z,8.00
2023-04-22T00:56:13.561Z,8.60
2023-04-22T01:01:16.478Z,9.80
2023-04-22T01:06:19.794Z,8.00
2023-04-22T01:11:24.305Z,6.80
2023-04-22T01:16:29.348Z,10.00
2023-04-22T01:21:34.285Z,10.40
2023-04-22T01:26:38.719Z,10.00
2023-04-22T01:31:41.608Z,9.80
2023-04-22T01:36:45.032Z,9.20
2023-04-22T01:41:49.128Z,10.00
2023-04-22T01:46:51.918Z,8.80
2023-04-22T01:51:54.801Z,9.00
2023-04-22T01:56:59.485Z,9.00
2023-04-22T02:02:02.268Z,10.20
2023-04-22T02:07:05.310Z,9.60
2023-04-22T02:12:10.521Z,7.00
2023-04-22T02:17:17.733Z,9.00
2023-04-22T02:22:21.813Z,9.00
2023-04-22T02:27:28.446Z,7.80
2023-04-22T02:32:31.544Z,9.40
2023-04-22T02:37:34.800Z,9.00
2023-04-22T02:42:38.887Z,10.20
2023-04-22T02:47:41.728Z,9.80
2023-04-22T02:52:44.597Z,9.20
2023-04-22T02:57:48.738Z,9.00
2023-04-22T03:02:52.055Z,7.40
2023-04-22T03:07:58.314Z,9.20
2023-04-22T03:13:02.411Z,9.00
2023-04-22T03:18:05.892Z,9.20
2023-04-22T03:23:09.026Z,10.00
2023-04-22T03:28:14.549Z,8.20
2023-04-22T03:33:17.856Z,9.00
2023-04-22T03:38:31.623Z,8.20
2023-04-22T03:43:35.860Z,9.40
2023-04-22T03:48:42.969Z,8.40
2023-04-22T03:53:52.703Z,7.80
2023-04-22T03:58:59.366Z,9.00
2023-04-22T04:04:02.912Z,8.80
2023-04-22T04:09:14.436Z,8.20
2023-04-22T04:14:18.766Z,8.80
2023-04-22T04:19:23.295Z,10.00
2023-04-22T04:24:26.901Z,9.60
2023-04-22T04:29:37.792Z,9.00
2023-04-22T04:34:47.532Z,9.00
2023-04-22T04:39:53.634Z,9.80
2023-04-22T04:45:00.790Z,8.80
2023-04-22T04:50:05.593Z,8.60
2023-04-22T04:55:10.612Z,9.00
2023-04-22T05:00:15.672Z,8.80
2023-04-22T05:05:19.919Z,7.80
2023-04-22T05:10:23.267Z,7.20
2023-04-22T05:15:27.615Z,8.20
2023-04-22T05:20:30.946Z,8.80
2023-04-22T05:25:34.984Z,7.20
2023-04-22T05:30:44.364Z,9.00
2023-04-22T05:35:47.503Z,8.00
2023-04-22T05:40:50.865Z,6.40
2023-04-22T05:45:56.557Z,7.20
2023-04-22T05:50:59.378Z,6.00
2023-04-22T05:56:05.152Z,6.00
2023-04-22T06:01:11.157Z,8.00
2023-04-22T06:06:25.843Z,6.80
2023-04-22T06:11:29.564Z,6.20
2023-04-22T06:16:34.659Z,8.40
2023-04-22T06:21:40.037Z,7.60
2023-04-22T06:26:43.016Z,6.60
2023-04-22T06:31:47.629Z,7.80
2023-04-22T06:36:51.216Z,8.60
2023-04-22T06:41:54.146Z,8.00
2023-04-22T06:47:36.869Z,7.60
2023-04-22T06:52:49.558Z,6.00
2023-04-22T06:57:52.328Z,7.80
2023-04-22T07:02:56.913Z,7.20
2023-04-22T07:08:00.742Z,8.20
2023-04-22T07:13:03.893Z,9.00
2023-04-22T07:18:08.200Z,13.00
2023-04-22T07:23:11.137Z,10.00
2023-04-22T07:28:13.928Z,10.00
2023-04-22T07:33:18.052Z,13.40
2023-04-22T07:38:20.921Z,13.20
2023-04-22T07:43:23.696Z,13.00
2023-04-22T07:48:27.804Z,12.80
2023-04-22T07:53:30.633Z,11.20
2023-04-22T07:58:33.525Z,13.00
2023-04-22T08:03:37.931Z,10.80
2023-04-22T08:08:41.005Z,14.00
2023-04-22T08:13:43.813Z,11.60
2023-04-22T08:18:47.963Z,11.00
2023-04-22T08:23:50.718Z,12.00
2023-04-22T08:28:53.483Z,11.00
2023-04-22T08:33:57.730Z,10.00
2023-04-22T08:39:00.598Z,13.40
2023-04-22T08:44:03.432Z,13.40
2023-04-22T08:49:07.749Z,16.20
2023-04-22T08:54:11.126Z,13.80
2023-04-22T08:59:14.083Z,13.00
2023-04-22T09:04:19.897Z,12.80
2023-04-22T09:09:23.602Z,14.20
2023-04-22T09:14:27.352Z,14.00
2023-04-22T09:19:31.436Z,13.20
2023-04-22T09:24:34.301Z,12.80
2023-04-22T09:29:37.488Z,14.00
2023-04-22T09:34:50.513Z,13.60
2023-04-22T09:39:53.360Z,12.40
2023-04-22T09:44:56.419Z,12.60
2023-04-22T09:50:00.874Z,12.40
2023-04-22T09:55:04.115Z,12.80
2023-04-22T10:00:10.386Z,10.40
2023-04-22T10:05:14.665Z,13.00
2023-04-22T10:10:17.751Z,11.60
2023-04-22T10:15:21.022Z,10.00
2023-04-22T10:20:25.913Z,10.00
2023-04-22T10:25:28.698Z,10.00
2023-04-22T10:30:32.759Z,9.40
2023-04-22T10:35:36.970Z,10.00
2023-04-22T10:40:39.795Z,10.20
2023-04-22T10:45:42.865Z,9.40
2023-04-22T10:50:47.304Z,11.40
2023-04-22T10:55:51.128Z,9.80
2023-04-22T11:00:59.757Z,10.00
2023-04-22T11:06:17.271Z,10.20
2023-04-22T11:11:20.125Z,10.60
2023-04-22T11:16:23.309Z,9.80
2023-04-22T11:21:27.614Z,9.00
2023-04-22T11:26:37.435Z,10.40
2023-04-22T11:31:40.821Z,9.40
2023-04-22T11:36:46.317Z,9.20
2023-04-22T11:41:49.078Z,8.60
2023-04-22T11:46:51.940Z,10.00
2023-04-22T11:51:56.965Z,10.00
2023-04-22T11:57:03.070Z,8.40
2023-04-22T12:02:06.745Z,9.80
2023-04-22T12:07:12.288Z,9.60
2023-04-22T12:12:15.780Z,9.40
2023-04-22T12:17:23.749Z,9.20
2023-04-22T12:22:28.336Z,9.80
2023-04-22T12:27:31.632Z,8.80
2023-04-22T12:32:34.594Z,8.80
2023-04-22T12:37:38.903Z,8.80
2023-04-22T12:42:41.680Z,7.00
2023-04-22T12:47:45.117Z,8.80
2023-04-22T12:52:49.241Z,7.40
2023-04-22T12:57:52.039Z,8.60
2023-04-22T13:02:55.308Z,8.00
2023-04-22T13:08:06.603Z,7.00
2023-04-22T13:13:18.483Z,8.20
2023-04-22T13:18:22.609Z,7.60
2023-04-22T13:23:27.653Z,7.00
2023-04-22T13:28:30.706Z,7.00
2023-04-22T13:33:34.633Z,7.00
2023-04-22T13:38:38.785Z,7.00
2023-04-22T13:43:41.499Z,7.20
2023-04-22T13:48:44.271Z,8.00
2023-04-22T13:53:48.398Z,7.20
2023-04-22T13:58:51.164Z,6.60
2023-04-22T14:03:54.648Z,7.40
2023-04-22T14:08:58.840Z,7.00
2023-04-22T14:14:01.724Z,7.00
2023-04-22T14:19:06.299Z,7.00
2023-04-22T14:24:10.551Z,8.00
2023-04-22T14:29:13.296Z,7.00
2023-04-22T14:34:16.088Z,7.00
2023-04-22T14:44:50.228Z,5.60
2023-04-22T14:49:53.003Z,6.80
2023-04-22T14:54:55.932Z,5.80
2023-04-22T15:00:00.051Z,6.60
2023-04-22T15:05:02.988Z,7.00
2023-04-22T15:10:07.914Z,7.00
2023-04-22T15:15:13.898Z,6.00
2023-04-22T15:20:16.900Z,4.20
2023-04-22T15:25:19.825Z,7.00
2023-04-22T15:30:24.127Z,5.80
2023-04-22T15:35:27.017Z,5.80
2023-04-22T15:40:29.797Z,6.40
2023-04-22T15:45:34.807Z,5.80
2023-04-22T15:50:38.871Z,4.60
2023-04-22T15:55:42.968Z,4.40
2023-04-22T16:00:54.267Z,5.00
2023-04-22T16:05:58.404Z,5.00
2023-04-22T16:11:01.126Z,5.80
2023-04-22T16:16:05.471Z,5.60
2023-04-22T16:21:08.271Z,4.40
2023-04-22T16:26:11.269Z,5.80
2023-04-22T16:31:17.885Z,5.20
2023-04-22T16:36:21.485Z,6.00
2023-04-22T16:41:24.272Z,6.00
2023-04-22T16:46:28.444Z,4.00
2023-04-22T16:51:31.268Z,6.00
2023-04-22T16:56:34.114Z,6.00
2023-04-22T17:01:38.255Z,6.00
2023-04-22T17:06:41.625Z,5.20
2023-04-22T17:11:44.447Z,6.00
2023-04-22T17:16:48.601Z,5.80
2023-04-22T17:21:51.897Z,4.80
2023-04-22T17:26:57.402Z,5.40
2023-04-22T17:32:02.222Z,6.60
2023-04-22T17:37:05.064Z,6.00
2023-04-22T17:42:08.853Z,6.60
2023-04-22T17:47:13.206Z,6.00
2023-04-22T17:52:16.493Z,6.00
2023-04-22T17:57:19.311Z,6.80
2023-04-22T18:02:24.999Z,6.40
2023-04-22T18:07:30.254Z,6.00
2023-04-22T18:12:34.701Z,5.80
2023-04-22T18:17:42.017Z,6.00
2023-04-22T18:22:44.808Z,6.00
2023-04-22T18:27:47.673Z,6.20
2023-04-22T18:32:52.106Z,6.00
2023-04-22T18:37:54.975Z,6.80
2023-04-22T18:42:58.147Z,7.00
2023-04-22T18:48:02.271Z,7.00
2023-04-22T18:53:05.207Z,6.20
2023-04-22T18:58:08.056Z,7.40
2023-04-22T19:03:12.752Z,7.00
2023-04-22T19:08:15.610Z,7.00
2023-04-22T19:13:29.122Z,6.80
2023-04-22T19:18:34.290Z,6.20
2023-04-22T19:23:37.935Z,7.00
2023-04-22T19:28:46.870Z,7.00
2023-04-22T19:33:51.381Z,6.00
2023-04-22T19:38:54.506Z,6.00
2023-04-22T19:43:58.886Z,7.00
2023-04-22T19:49:03.699Z,6.80
2023-04-22T19:54:07.483Z,6.00
2023-04-22T19:59:10.468Z,6.80
2023-04-22T20:04:16.045Z,6.40
2023-04-22T20:09:19.655Z,7.00
2023-04-22T20:14:23.429Z,6.00
2023-04-22T20:19:28.385Z,6.00
2023-04-22T20:24:31.263Z,6.00
2023-04-22T20:29:34.448Z,6.00
2023-04-22T20:34:39.369Z,6.00
2023-04-22T20:39:43.167Z,4.00
2023-04-22T20:44:45.947Z,6.00
2023-04-22T20:49:50.171Z,4.40
2023-04-22T20:54:55.124Z,6.00
2023-04-22T20:59:57.919Z,6.00
2023-04-22T21:05:02.267Z,6.00
2023-04-22T21:10:06.105Z,4.00
2023-04-22T21:15:10.051Z,5.00
2023-04-22T21:20:14.498Z,5.20
2023-04-22T21:25:20.765Z,3.60
2023-04-22T21:30:24.457Z,5.40
2023-04-22T21:35:29.909Z,6.00
2023-04-22T21:40:32.731Z,4.00
2023-04-22T21:45:35.874Z,4.00
2023-04-22T21:50:40.150Z,5.00
2023-04-22T21:55:42.898Z,4.00
2023-04-22T22:00:47.249Z,5.60
2023-04-22T22:05:51.781Z,4.80
2023-04-22T22:10:54.604Z,4.00
2023-04-22T22:15:57.506Z,5.60
2023-04-22T22:21:01.856Z,4.80
2023-04-22T22:26:04.650Z,5.20
2023-04-22T22:31:08.057Z,4.00
2023-04-22T22:36:12.433Z,3.60
2023-04-22T22:41:15.310Z,3.00
2023-04-22T22:46:18.187Z,4.00
2023-04-22T22:51:22.325Z,4.00
2023-04-22T22:56:25.121Z,4.00
2023-04-22T23:01:28.102Z,3.00
2023-04-22T23:06:32.810Z,4.00
2023-04-22T23:11:35.674Z,4.00
2023-04-22T23:16:38.982Z,4.00
2023-04-22T23:21:43.239Z,4.00
2023-04-22T23:26:46.517Z,3.60
2023-04-22T23:31:49.325Z,3.60
2023-04-22T23:36:53.784Z,3.00
2023-04-22T23:41:56.601Z,4.60
2023-04-22T23:46:59.374Z,3.40
2023-04-22T23:52:03.479Z,3.00
2023-04-22T23:57:06.762Z,4.00
